Time;durP1;ratioP1;P1;durP2;ratioP2;P2;SDS_P1;SDS_P2;PMS_P1;PMS_P2;Temp;Humidity;BMP_temperature;BMP_pressure;BME280_temperature;BME280_humidity;BME280_pressure;Samples;Min_cycle;Max_cycle;Signal;HPM_P1;HPM_P2
2023/03/01 00:01:15;;;;;;;17.77;8.13;;;2.40;63.90;;;;;;5075201;28;20035;-16
2023/03/01 00:03:42;;;;;;;18.35;8.88;;;2.40;64.20;;;;;;5075524;28;20028;-16
2023/03/01 00:06:09;;;;;;;18.38;8.75;;;2.40;64.90;;;;;;5074638;28;20052;-18
2023/03/01 00:08:35;;;;;;;18.67;8.68;;;2.40;64.50;;;;;;5056890;28;20031;-16
2023/03/01 00:11:19;;;;;;;21.77;9.57;;;2.50;64.30;;;;;;5074936;28;20027;-17
2023/03/01 00:13:47;;;;;;;17.95;8.98;;;2.60;64.60;;;;;;5074867;28;20375;-18
2023/03/01 00:16:17;;;;;;;19.85;9.35;;;2.60;64.20;;;;;;5074707;28;20028;-18
2023/03/01 00:18:43;;;;;;;18.00;8.93;;;2.70;65.30;;;;;;5074693;28;20039;-19
2023/03/01 00:21:09;;;;;;;19.25;8.70;;;2.60;65.20;;;;;;5074359;28;20101;-17
2023/03/01 00:23:36;;;;;;;18.77;8.65;;;2.60;65.30;;;;;;5074516;28;20036;-17
2023/03/01 00:26:02;;;;;;;23.20;9.48;;;2.60;64.90;;;;;;5074700;28;20036;-16
2023/03/01 00:28:28;;;;;;;17.92;8.63;;;2.60;65.00;;;;;;5074600;28;20031;-16
2023/03/01 00:30:54;;;;;;;17.15;8.20;;;2.60;65.40;;;;;;5074744;28;20025;-17
2023/03/01 00:33:20;;;;;;;18.23;8.50;;;2.50;64.10;;;;;;5074405;28;20488;-16
2023/03/01 00:35:46;;;;;;;17.08;8.10;;;2.50;64.50;;;;;;5074229;28;20033;-17
2023/03/01 00:38:11;;;;;;;20.80;8.63;;;2.40;65.20;;;;;;5074513;28;20384;-17
2023/03/01 00:40:37;;;;;;;19.80;9.07;;;2.40;66.20;;;;;;5074476;28;20029;-17
2023/03/01 00:43:04;;;;;;;16.70;7.85;;;2.40;66.20;;;;;;5074028;28;20203;-16
2023/03/01 00:45:31;;;;;;;15.90;7.75;;;2.40;66.00;;;;;;5074171;28;20108;-17
2023/03/01 00:47:56;;;;;;;19.00;9.48;;;2.40;65.60;;;;;;5074397;28;20020;-17
2023/03/01 00:50:23;;;;;;;16.67;8.48;;;2.40;66.20;;;;;;5074142;28;20515;-17
2023/03/01 00:52:54;;;;;;;17.05;8.43;;;2.50;65.30;;;;;;5073795;28;20021;-17
2023/03/01 00:55:20;;;;;;;16.02;7.80;;;2.50;65.00;;;;;;5072893;28;20388;-17
2023/03/01 00:57:45;;;;;;;16.63;8.45;;;2.50;65.20;;;;;;5074199;28;20550;-17
2023/03/01 01:00:12;;;;;;;18.83;7.90;;;2.50;65.70;;;;;;5073796;28;20115;-17
2023/03/01 01:02:37;;;;;;;18.45;7.97;;;2.50;65.90;;;;;;5073668;28;20434;-17
2023/03/01 01:05:04;;;;;;;16.90;7.75;;;2.50;65.30;;;;;;5073305;28;20059;-17
2023/03/01 01:07:30;;;;;;;18.25;7.93;;;2.50;65.50;;;;;;5073682;28;20079;-17
2023/03/01 01:09:56;;;;;;;15.23;7.15;;;2.50;65.80;;;;;;5073973;28;20025;-17
2023/03/01 01:12:22;;;;;;;16.17;8.57;;;2.50;65.20;;;;;;5073584;28;20361;-16
2023/03/01 01:14:48;;;;;;;16.02;7.22;;;2.50;65.50;;;;;;5163237;22;20092;-20
2023/03/01 01:17:14;;;;;;;16.38;8.15;;;2.40;65.40;;;;;;5093839;28;20024;-18
2023/03/01 01:19:40;;;;;;;15.95;7.63;;;2.40;65.00;;;;;;5094101;28;20020;-20
2023/03/01 01:22:06;;;;;;;15.07;8.15;;;2.40;65.40;;;;;;5093820;28;20051;-20
2023/03/01 01:24:32;;;;;;;17.25;7.70;;;2.30;66.10;;;;;;5132818;22;20048;-16
2023/03/01 01:26:58;;;;;;;16.65;7.97;;;2.40;66.60;;;;;;5073255;28;20379;-17
2023/03/01 01:29:24;;;;;;;17.02;8.10;;;2.40;66.70;;;;;;5073723;28;20116;-18
2023/03/01 01:34:21;;;;;;;19.73;8.82;;;2.50;66.10;;;;;;5070983;28;20411;-21
2023/03/01 01:36:53;;;;;;;17.02;7.88;;;2.50;66.00;;;;;;5073284;28;20024;-22
2023/03/01 01:39:20;;;;;;;20.67;7.90;;;2.60;65.80;;;;;;5073171;28;20027;-20
2023/03/01 01:41:47;;;;;;;18.27;8.15;;;2.60;65.60;;;;;;5073348;28;20151;-22
2023/03/01 01:44:23;;;;;;;18.25;8.15;;;2.60;65.60;;;;;;5073215;28;20016;-22
2023/03/01 01:47:18;;;;;;;16.85;8.15;;;2.70;65.00;;;;;;5073010;28;20028;-21
2023/03/01 01:49:53;;;;;;;18.88;8.18;;;2.80;65.50;;;;;;5072930;28;20021;-21
2023/03/01 01:52:37;;;;;;;18.35;8.85;;;2.80;65.00;;;;;;5073281;28;20043;-20
2023/03/01 01:55:06;;;;;;;;;;;2.80;64.80;;;;;;5073438;28;20093;-21
2023/03/01 01:57:41;;;;;;;15.15;7.80;;;2.80;65.50;;;;;;5073085;28;20390;-21
2023/03/01 02:00:11;;;;;;;23.52;10.35;;;2.80;65.20;;;;;;5073003;28;20100;-20
2023/03/01 02:02:38;;;;;;;18.88;9.10;;;2.80;64.70;;;;;;5072609;28;20039;-20
2023/03/01 02:05:19;;;;;;;18.13;9.60;;;2.70;64.60;;;;;;5072582;28;20506;-21
2023/03/01 02:07:47;;;;;;;18.90;9.52;;;2.70;64.60;;;;;;5072736;28;20024;-20
2023/03/01 02:10:13;;;;;;;21.10;10.43;;;2.70;65.10;;;;;;5072988;28;20025;-21
2023/03/01 02:12:39;;;;;;;19.60;9.65;;;2.80;64.60;;;;;;5072743;28;20484;-20
2023/03/01 02:15:05;;;;;;;21.63;9.50;;;2.80;64.60;;;;;;5145967;22;20052;-18
2023/03/01 02:17:32;;;;;;;22.50;9.65;;;2.70;65.30;;;;;;5092973;28;20059;-18
2023/03/01 02:20:06;;;;;;;19.15;9.10;;;2.70;64.90;;;;;;5092898;28;20042;-17
2023/03/01 02:25:23;;;;;;;17.83;9.23;;;2.80;64.90;;;;;;5049159;28;20119;-18
2023/03/01 02:28:10;;;;;;;20.83;9.48;;;2.80;65.60;;;;;;5052875;28;20033;-18
2023/03/01 02:30:36;;;;;;;19.38;9.45;;;2.80;65.20;;;;;;5052492;28;20021;-18
2023/03/01 02:33:04;;;;;;;20.25;9.73;;;2.70;65.10;;;;;;5052199;28;20452;-19
2023/03/01 02:35:37;;;;;;;22.75;9.35;;;2.70;65.20;;;;;;5052710;28;20025;-18
2023/03/01 02:38:06;;;;;;;19.07;9.10;;;2.80;65.40;;;;;;5052402;28;20036;-18
2023/03/01 02:40:35;;;;;;;20.27;9.55;;;2.80;65.20;;;;;;5034285;28;20140;-20
2023/03/01 02:43:02;;;;;;;20.13;8.85;;;2.80;65.60;;;;;;5052417;28;20025;-18
2023/03/01 02:45:28;;;;;;;18.15;9.15;;;2.90;65.20;;;;;;5052497;28;20183;-19
2023/03/01 02:47:55;;;;;;;17.50;8.93;;;2.90;65.60;;;;;;5052375;28;20116;-18
2023/03/01 02:50:30;;;;;;;17.27;8.27;;;2.90;65.40;;;;;;5034326;28;20103;-17
2023/03/01 02:53:09;;;;;;;16.55;7.93;;;3.00;65.20;;;;;;5051918;28;20021;-19
2023/03/01 02:55:35;;;;;;;16.67;8.38;;;3.10;65.20;;;;;;5034401;28;20028;-19
2023/03/01 02:58:03;;;;;;;15.88;7.93;;;3.10;65.10;;;;;;5052316;28;20021;-18
2023/03/01 03:00:45;;;;;;;17.63;9.00;;;3.20;64.80;;;;;;5052041;28;20126;-19
2023/03/01 03:03:14;;;;;;;19.08;8.55;;;3.20;64.70;;;;;;5052425;28;20037;-20
2023/03/01 03:05:40;;;;;;;17.90;8.20;;;3.20;64.60;;;;;;5052489;28;20086;-19
2023/03/01 03:08:07;;;;;;;16.85;8.45;;;3.20;64.50;;;;;;5052005;28;20040;-18
2023/03/01 03:10:37;;;;;;;16.70;8.43;;;3.20;64.60;;;;;;5034737;28;20037;-17
2023/03/01 03:13:11;;;;;;;16.42;8.45;;;3.20;64.90;;;;;;5051817;28;20032;-19
2023/03/01 03:15:38;;;;;;;18.23;8.90;;;3.20;64.70;;;;;;5051999;28;20082;-17
2023/03/01 03:18:08;;;;;;;14.50;7.85;;;3.20;64.70;;;;;;5052508;28;20052;-18
2023/03/01 03:20:34;;;;;;;17.15;8.25;;;3.20;64.80;;;;;;5055893;28;20029;-18
2023/03/01 03:23:00;;;;;;;16.42;8.57;;;3.20;65.00;;;;;;5055443;28;20041;-19
2023/03/01 03:25:27;;;;;;;17.95;8.15;;;3.20;65.00;;;;;;5037855;28;20056;-16
2023/03/01 03:27:56;;;;;;;16.05;8.10;;;3.20;64.90;;;;;;5056375;28;20025;-18
2023/03/01 03:30:25;;;;;;;20.00;8.80;;;3.10;64.90;;;;;;5055803;28;20039;-18
2023/03/01 03:32:53;;;;;;;18.40;8.60;;;3.10;65.00;;;;;;5055635;28;20033;-17
2023/03/01 03:35:31;;;;;;;15.30;8.23;;;3.10;65.20;;;;;;5055880;28;20121;-17
2023/03/01 03:38:02;;;;;;;14.93;7.45;;;2.90;65.10;;;;;;5055606;28;20078;-17
2023/03/01 03:40:30;;;;;;;15.32;7.47;;;2.90;65.10;;;;;;5055477;28;20060;-19
2023/03/01 03:42:56;;;;;;;17.48;8.32;;;2.80;65.20;;;;;;5055446;28;20048;-20
2023/03/01 03:45:22;;;;;;;13.40;6.90;;;2.70;65.40;;;;;;5055477;28;20032;-19
2023/03/01 03:47:48;;;;;;;14.52;6.50;;;2.60;65.60;;;;;;5055827;28;20130;-18
2023/03/01 03:50:16;;;;;;;15.20;8.15;;;2.60;65.70;;;;;;5055553;28;20017;-18
2023/03/01 03:52:42;;;;;;;16.73;7.43;;;2.50;66.10;;;;;;5125462;22;20067;-18
2023/03/01 03:55:10;;;;;;;15.15;7.10;;;2.50;66.20;;;;;;5076173;28;20025;-17
2023/03/01 03:57:37;;;;;;;15.27;8.25;;;2.40;66.10;;;;;;5075135;28;20060;-17
2023/03/01 04:00:05;;;;;;;19.05;7.80;;;2.40;66.20;;;;;;5075367;28;20020;-17
2023/03/01 04:02:31;;;;;;;13.85;6.28;;;2.30;66.20;;;;;;5075265;28;20206;-16
2023/03/01 04:04:57;;;;;;;14.98;6.93;;;2.20;66.50;;;;;;5155111;22;20044;-21
2023/03/01 04:07:23;;;;;;;14.98;7.03;;;2.20;66.70;;;;;;5095582;28;20028;-21
2023/03/01 04:09:49;;;;;;;15.57;7.40;;;2.10;66.70;;;;;;5095394;28;20111;-20
2023/03/01 04:12:20;;;;;;;16.70;7.63;;;2.10;66.80;;;;;;5095196;28;20505;-20
2023/03/01 04:14:46;;;;;;;14.13;7.20;;;2.00;67.00;;;;;;5095111;28;20016;-21
2023/03/01 04:17:12;;;;;;;15.10;7.68;;;2.00;67.10;;;;;;5095005;28;20020;-20
2023/03/01 04:19:38;;;;;;;14.65;7.78;;;2.00;67.10;;;;;;5095000;28;20085;-21
2023/03/01 04:22:09;;;;;;;13.32;7.32;;;2.00;67.20;;;;;;5095299;28;20062;-21
2023/03/01 04:24:35;;;;;;;12.73;6.63;;;2.00;67.30;;;;;;5095387;28;20032;-20
2023/03/01 04:27:02;;;;;;;15.73;7.47;;;2.10;67.40;;;;;;5094928;28;20119;-20
2023/03/01 04:29:28;;;;;;;14.18;6.90;;;2.10;67.80;;;;;;5094743;28;20487;-20
2023/03/01 04:31:54;;;;;;;16.20;8.07;;;2.10;67.60;;;;;;5094331;28;20023;-19
2023/03/01 04:34:20;;;;;;;15.25;7.50;;;2.10;67.20;;;;;;5094678;28;20038;-20
2023/03/01 04:36:45;;;;;;;15.43;7.40;;;2.10;67.50;;;;;;5094471;28;20020;-20
2023/03/01 04:39:14;;;;;;;13.95;7.10;;;2.20;67.10;;;;;;5095050;28;20024;-20
2023/03/01 04:41:40;;;;;;;16.15;6.95;;;2.10;67.60;;;;;;5094584;28;20398;-20
2023/03/01 04:44:08;;;;;;;15.15;7.28;;;2.20;67.40;;;;;;5094745;28;20055;-20
2023/03/01 04:46:35;;;;;;;15.40;7.32;;;2.30;67.40;;;;;;5094691;28;20028;-20
2023/03/01 04:49:01;;;;;;;17.05;7.40;;;2.30;67.40;;;;;;5094033;28;20418;-20
2023/03/01 04:51:27;;;;;;;15.60;7.45;;;2.30;67.20;;;;;;5094345;28;20050;-21
2023/03/01 04:53:53;;;;;;;15.68;7.85;;;2.40;67.10;;;;;;5094218;28;20024;-20
2023/03/01 04:56:19;;;;;;;14.65;7.18;;;2.40;67.60;;;;;;5094227;28;20077;-21
2023/03/01 04:58:45;;;;;;;13.90;6.80;;;2.50;66.90;;;;;;5094830;28;20063;-20
2023/03/01 05:01:17;;;;;;;15.73;7.28;;;2.50;66.70;;;;;;5094274;28;20054;-21
2023/03/01 05:03:52;;;;;;;13.30;6.55;;;2.60;66.80;;;;;;5094179;28;20024;-20
2023/03/01 05:06:20;;;;;;;14.75;6.60;;;2.60;66.80;;;;;;5094048;28;20056;-20
2023/03/01 05:08:46;;;;;;;12.70;6.18;;;2.70;67.20;;;;;;5093919;28;20020;-21
2023/03/01 05:11:12;;;;;;;11.82;6.38;;;2.80;66.90;;;;;;5094150;28;20154;-20
2023/03/01 05:13:39;;;;;;;13.23;5.72;;;2.90;67.50;;;;;;5147229;22;20131;-15
2023/03/01 05:16:06;;;;;;;13.30;6.65;;;2.90;67.70;;;;;;5073943;28;20067;-17
2023/03/01 05:18:33;;;;;;;12.57;5.95;;;3.00;66.80;;;;;;5073538;28;20066;-16
2023/03/01 05:21:15;;;;;;;13.10;5.78;;;3.20;66.70;;;;;;5073438;28;20119;-16
2023/03/01 05:23:41;;;;;;;12.30;5.63;;;3.30;66.00;;;;;;5164249;22;20095;-16
2023/03/01 05:26:08;;;;;;;11.13;5.70;;;3.30;66.10;;;;;;5073270;28;20483;-17
2023/03/01 05:28:34;;;;;;;16.20;6.55;;;3.40;66.40;;;;;;5073615;28;20085;-16
2023/03/01 05:31:00;;;;;;;10.73;5.35;;;3.50;66.10;;;;;;5073506;28;20024;-16
2023/03/01 05:33:27;;;;;;;12.45;5.57;;;3.60;66.30;;;;;;5073345;28;20052;-17
2023/03/01 05:35:53;;;;;;;13.18;6.35;;;3.70;65.60;;;;;;5073220;28;20078;-16
2023/03/01 05:38:20;;;;;;;11.85;5.90;;;3.80;65.50;;;;;;5073679;28;20093;-16
2023/03/01 05:40:48;;;;;;;11.63;5.30;;;3.90;65.40;;;;;;5072252;28;20047;-16
2023/03/01 05:43:15;;;;;;;11.75;5.45;;;3.90;65.20;;;;;;5073345;28;20082;-16
2023/03/01 05:45:43;;;;;;;15.02;5.93;;;4.00;65.00;;;;;;5073413;28;20115;-16
2023/03/01 05:48:10;;;;;;;12.30;5.97;;;4.10;64.80;;;;;;5073281;28;20030;-15
2023/03/01 05:50:39;;;;;;;10.57;5.50;;;4.10;64.80;;;;;;5073232;28;20051;-14
2023/03/01 05:53:09;;;;;;;12.00;5.13;;;4.20;64.50;;;;;;5073175;28;20032;-12
2023/03/01 05:55:36;;;;;;;10.77;4.90;;;4.30;64.50;;;;;;5073080;28;20028;-13
2023/03/01 05:58:07;;;;;;;12.38;5.93;;;4.30;64.10;;;;;;5150343;22;20403;-21
2023/03/01 06:00:33;;;;;;;15.13;5.63;;;4.40;63.90;;;;;;5093169;28;20498;-21
2023/03/01 06:03:00;;;;;;;13.07;6.70;;;4.40;64.30;;;;;;5092797;28;20028;-21
2023/03/01 06:05:27;;;;;;;12.07;6.03;;;4.50;64.00;;;;;;5093318;28;20066;-19
2023/03/01 06:07:53;;;;;;;11.30;5.68;;;4.50;63.70;;;;;;5093275;28;20031;-19
2023/03/01 06:10:21;;;;;;;11.15;5.22;;;4.60;63.10;;;;;;5092914;28;20442;-21
2023/03/01 06:12:47;;;;;;;9.82;4.85;;;4.60;62.80;;;;;;5092604;28;20012;-19
2023/03/01 06:15:14;;;;;;;10.48;4.95;;;4.70;62.60;;;;;;5092913;28;20384;-19
2023/03/01 06:17:42;;;;;;;12.00;5.10;;;4.80;62.50;;;;;;5093212;28;20089;-19
2023/03/01 06:20:17;;;;;;;10.15;4.95;;;4.80;62.20;;;;;;5092774;28;20035;-20
2023/03/01 06:22:44;;;;;;;10.57;5.63;;;4.90;62.00;;;;;;5092719;28;20036;-20
2023/03/01 06:25:12;;;;;;;12.02;6.00;;;4.90;62.00;;;;;;5092785;28;20024;-20
2023/03/01 06:27:38;;;;;;;13.07;6.25;;;5.00;61.90;;;;;;5092454;28;20028;-20
2023/03/01 06:30:06;;;;;;;13.88;6.68;;;5.00;61.80;;;;;;5092653;28;20090;-20
2023/03/01 06:32:32;;;;;;;13.80;6.53;;;5.00;61.80;;;;;;5092900;28;20065;-20
2023/03/01 06:34:58;;;;;;;13.95;6.97;;;5.00;61.70;;;;;;5148156;22;20044;-16
2023/03/01 06:37:25;;;;;;;13.25;6.50;;;5.00;61.90;;;;;;5092964;28;20085;-17
2023/03/01 06:39:51;;;;;;;14.23;7.13;;;5.00;61.90;;;;;;5093176;28;20050;-16
2023/03/01 06:42:17;;;;;;;15.88;8.13;;;5.00;61.90;;;;;;5092641;28;20483;-18
2023/03/01 06:44:44;;;;;;;12.88;7.35;;;5.00;62.00;;;;;;5092548;28;20104;-16
2023/03/01 06:47:10;;;;;;;13.50;7.18;;;5.00;61.90;;;;;;5092371;28;20042;-17
2023/03/01 06:49:36;;;;;;;13.18;6.75;;;5.10;62.20;;;;;;5092465;28;20103;-16
2023/03/01 06:52:02;;;;;;;11.93;6.85;;;5.10;62.30;;;;;;5092760;28;20016;-17
2023/03/01 06:54:28;;;;;;;13.63;6.65;;;5.10;62.50;;;;;;5096565;28;20158;-16
2023/03/01 06:56:54;;;;;;;12.45;6.90;;;5.10;62.40;;;;;;5096283;28;20490;-16
2023/03/01 06:59:20;;;;;;;14.30;7.18;;;5.20;62.40;;;;;;5096598;28;20493;-15
2023/03/01 07:01:46;;;;;;;16.02;8.10;;;5.30;62.50;;;;;;5096148;28;20140;-17
2023/03/01 07:04:13;;;;;;;12.50;6.97;;;5.30;62.60;;;;;;5096426;28;20066;-17
2023/03/01 07:06:39;;;;;;;14.15;6.85;;;5.40;62.40;;;;;;5078305;28;20425;-16
2023/03/01 07:09:05;;;;;;;12.27;7.47;;;5.40;62.30;;;;;;5158061;22;20529;-20
2023/03/01 07:11:32;;;;;;;16.55;8.10;;;5.50;62.70;;;;;;5076302;28;20092;-20
2023/03/01 07:13:59;;;;;;;16.30;7.97;;;5.50;62.40;;;;;;5075868;28;20114;-20
2023/03/01 07:16:25;;;;;;;13.25;7.55;;;5.60;62.40;;;;;;5076155;28;20514;-21
2023/03/01 07:18:51;;;;;;;14.57;7.65;;;5.70;62.20;;;;;;5075471;28;20052;-19
2023/03/01 07:21:17;;;;;;;13.25;6.20;;;5.80;62.30;;;;;;5076081;28;20509;-19
2023/03/01 07:23:43;;;;;;;12.50;6.53;;;5.90;61.60;;;;;;5075993;28;20040;-21
2023/03/01 07:26:09;;;;;;;14.55;6.20;;;6.00;61.10;;;;;;5057523;28;20150;-20
2023/03/01 07:28:38;;;;;;;12.15;5.50;;;6.20;60.40;;;;;;5075593;28;20025;-20
2023/03/01 07:31:04;;;;;;;14.63;7.65;;;6.40;60.00;;;;;;5138645;22;20055;-15
2023/03/01 07:33:31;;;;;;;14.55;7.57;;;6.50;59.80;;;;;;5095955;28;20055;-19
2023/03/01 07:35:59;;;;;;;17.05;7.65;;;6.50;59.10;;;;;;5096050;28;20114;-15
2023/03/01 07:38:26;;;;;;;14.20;8.00;;;6.60;58.80;;;;;;5095875;28;20024;-15
2023/03/01 07:40:52;;;;;;;15.15;8.50;;;6.60;58.80;;;;;;5095216;28;20103;-17
2023/03/01 07:43:17;;;;;;;16.77;7.97;;;6.70;58.70;;;;;;5095900;28;20538;-16
2023/03/01 07:45:43;;;;;;;16.92;8.23;;;6.80;59.10;;;;;;5095707;28;20028;-16
2023/03/01 07:48:09;;;;;;;15.65;8.73;;;6.90;58.70;;;;;;5095666;28;20165;-16
2023/03/01 07:50:35;;;;;;;14.88;8.05;;;6.90;58.30;;;;;;5095762;28;20058;-17
2023/03/01 07:53:02;;;;;;;16.67;7.43;;;7.00;57.60;;;;;;5095551;28;20058;-15
2023/03/01 07:55:28;;;;;;;17.45;7.72;;;7.10;57.50;;;;;;5095580;28;20036;-16
2023/03/01 07:57:54;;;;;;;14.68;7.75;;;7.10;57.80;;;;;;5167261;22;20052;-17
2023/03/01 08:00:19;;;;;;;14.15;7.47;;;7.20;57.50;;;;;;5095616;28;20024;-16
2023/03/01 08:02:45;;;;;;;16.27;7.50;;;7.30;57.10;;;;;;5095163;28;20078;-19
2023/03/01 08:05:11;;;;;;;14.90;7.53;;;7.30;57.10;;;;;;5094783;28;20049;-17
2023/03/01 08:07:37;;;;;;;15.73;7.47;;;7.40;57.40;;;;;;5095358;28;20020;-16
2023/03/01 08:10:03;;;;;;;13.55;7.78;;;7.50;57.30;;;;;;5095368;28;20052;-18
2023/03/01 08:12:29;;;;;;;14.65;7.57;;;7.60;57.10;;;;;;5095343;28;20028;-17
2023/03/01 08:14:56;;;;;;;13.25;6.72;;;7.70;57.40;;;;;;5094981;28;20020;-17
2023/03/01 08:17:22;;;;;;;13.25;6.95;;;7.90;56.60;;;;;;5077278;28;20032;-17
2023/03/01 08:19:48;;;;;;;11.55;6.18;;;7.90;55.50;;;;;;5094803;28;20467;-17
2023/03/01 08:22:14;;;;;;;19.00;7.22;;;8.00;56.30;;;;;;5094798;28;20024;-18
2023/03/01 08:24:39;;;;;;;12.25;6.28;;;8.00;56.10;;;;;;5149558;22;20059;-17
2023/03/01 08:27:05;;;;;;;11.77;5.85;;;8.10;55.80;;;;;;5095448;28;20027;-15
2023/03/01 08:29:32;;;;;;;10.07;5.80;;;8.10;56.10;;;;;;5094497;28;20116;-15
2023/03/01 08:31:58;;;;;;;10.93;5.57;;;8.20;55.90;;;;;;5166083;22;20958;-16
2023/03/01 08:34:23;;;;;;;9.48;4.95;;;8.20;55.30;;;;;;5076476;28;20127;-20
2023/03/01 08:36:51;;;;;;;10.35;5.32;;;8.30;54.00;;;;;;5152886;22;20028;-13
2023/03/01 08:39:19;;;;;;;11.52;5.35;;;8.30;55.10;;;;;;5088394;28;20051;-14
2023/03/01 08:41:45;;;;;;;10.30;5.32;;;8.40;55.30;;;;;;5094458;28;20070;-16
2023/03/01 08:44:12;;;;;;;9.60;4.80;;;8.50;55.10;;;;;;5179381;22;20532;-21
2023/03/01 08:46:40;;;;;;;9.90;4.82;;;8.60;54.00;;;;;;5094522;28;20039;-21
2023/03/01 08:49:16;;;;;;;9.60;5.28;;;8.80;54.30;;;;;;5094329;28;20024;-20
2023/03/01 08:51:42;;;;;;;10.20;5.30;;;9.00;54.10;;;;;;5094636;28;20020;-20
2023/03/01 08:54:15;;;;;;;12.57;5.07;;;9.10;53.40;;;;;;5094538;28;20027;-19
2023/03/01 08:56:42;;;;;;;11.63;4.72;;;9.20;53.20;;;;;;5094031;28;20024;-20
2023/03/01 08:59:09;;;;;;;11.75;5.28;;;9.40;53.50;;;;;;5094244;28;20053;-21
2023/03/01 09:01:34;;;;;;;10.38;4.95;;;9.40;53.40;;;;;;5093970;28;20039;-21
2023/03/01 09:04:00;;;;;;;9.40;5.35;;;9.60;53.40;;;;;;5093995;28;20024;-20
2023/03/01 09:06:26;;;;;;;11.65;5.30;;;9.80;53.30;;;;;;5094094;28;20032;-20
2023/03/01 09:08:52;;;;;;;9.32;5.30;;;9.90;52.30;;;;;;5093913;28;20024;-20
2023/03/01 09:11:21;;;;;;;12.73;5.63;;;10.20;51.10;;;;;;5075861;28;20027;-20
2023/03/01 09:13:48;;;;;;;11.57;5.75;;;10.50;51.40;;;;;;5093655;28;20103;-20
2023/03/01 09:16:17;;;;;;;11.07;5.82;;;10.80;48.70;;;;;;5093173;28;20106;-20
2023/03/01 09:18:44;;;;;;;12.10;5.20;;;11.00;49.00;;;;;;5093872;28;20036;-22
2023/03/01 09:21:15;;;;;;;10.70;5.70;;;11.40;49.10;;;;;;5093955;28;20078;-21
2023/03/01 09:23:44;;;;;;;8.65;5.03;;;11.80;49.20;;;;;;5093487;28;20540;-21
2023/03/01 09:26:14;;;;;;;15.65;5.38;;;12.30;47.80;;;;;;5093867;28;20043;-21
2023/03/01 09:28:46;;;;;;;11.88;5.60;;;12.50;46.40;;;;;;5093187;28;20024;-18
2023/03/01 09:31:13;;;;;;;10.75;5.22;;;12.60;44.60;;;;;;5093786;28;20439;-19
2023/03/01 09:33:41;;;;;;;8.48;4.60;;;12.60;45.60;;;;;;5093530;28;20099;-20
2023/03/01 09:36:13;;;;;;;9.35;5.25;;;12.60;45.50;;;;;;5091533;28;20028;-19
2023/03/01 09:38:49;;;;;;;9.98;5.18;;;12.60;45.30;;;;;;5151427;22;20471;-15
2023/03/01 09:41:17;;;;;;;10.90;4.90;;;12.60;45.80;;;;;;5089834;28;20028;-13
2023/03/01 09:43:54;;;;;;;9.85;5.20;;;12.70;45.60;;;;;;5090042;28;20116;-17
2023/03/01 09:46:22;;;;;;;10.40;4.80;;;12.60;45.60;;;;;;5090039;28;20020;-17
2023/03/01 09:48:57;;;;;;;9.30;4.85;;;12.60;45.30;;;;;;5141417;22;20065;-17
2023/03/01 09:51:31;;;;;;;11.98;4.90;;;12.70;44.80;;;;;;5050108;28;20096;-16
2023/03/01 09:53:58;;;;;;;8.70;4.68;;;12.90;45.30;;;;;;5049641;28;20033;-16
2023/03/01 09:56:47;;;;;;;9.65;5.40;;;13.00;44.00;;;;;;5049200;28;20112;-18
2023/03/01 09:59:13;;;;;;;15.38;5.78;;;13.10;44.30;;;;;;5048986;28;20106;-17
2023/03/01 10:01:48;;;;;;;14.32;5.25;;;13.10;44.40;;;;;;5049477;28;20456;-18
2023/03/01 10:04:23;;;;;;;11.40;5.30;;;12.90;44.90;;;;;;5049285;28;20064;-16
2023/03/01 10:07:02;;;;;;;9.18;4.80;;;13.00;45.60;;;;;;5049203;28;20053;-17
2023/03/01 10:09:34;;;;;;;10.95;4.63;;;13.20;44.70;;;;;;5049765;28;20033;-17
2023/03/01 10:12:04;;;;;;;11.73;5.25;;;13.20;44.90;;;;;;5031511;28;20043;-16
2023/03/01 10:14:36;;;;;;;7.32;4.35;;;13.40;43.70;;;;;;5049213;28;20040;-16
2023/03/01 10:17:32;;;;;;;11.50;4.55;;;13.50;44.90;;;;;;5048638;28;20032;-17
2023/03/01 10:20:19;;;;;;;9.55;4.20;;;13.40;45.30;;;;;;5040688;28;20511;-17
2023/03/01 10:22:50;;;;;;;6.95;4.07;;;13.30;45.10;;;;;;5049035;28;20040;-16
2023/03/01 10:25:28;;;;;;;14.35;4.40;;;13.30;45.10;;;;;;5048706;28;20029;-17
2023/03/01 10:27:59;;;;;;;9.95;4.63;;;13.20;44.20;;;;;;5103797;22;20057;-16
2023/03/01 10:30:28;;;;;;;9.18;4.05;;;13.10;45.50;;;;;;5049133;28;20084;-14
2023/03/01 10:32:54;;;;;;;10.02;4.40;;;13.10;45.10;;;;;;5048755;28;20116;-17
2023/03/01 10:35:20;;;;;;;8.75;3.90;;;13.20;43.60;;;;;;5123725;22;20021;-16
2023/03/01 10:38:02;;;;;;;8.93;4.30;;;13.20;43.30;;;;;;5045277;28;20055;-18
2023/03/01 10:40:28;;;;;;;9.30;4.20;;;13.30;44.00;;;;;;5049062;28;20144;-18
2023/03/01 10:42:58;;;;;;;8.32;4.30;;;13.30;43.90;;;;;;5048645;28;20025;-18
2023/03/01 10:45:37;;;;;;;9.37;4.80;;;13.40;43.70;;;;;;5103843;22;20106;-17
2023/03/01 10:48:16;;;;;;;8.93;4.53;;;13.40;42.80;;;;;;5024829;28;20045;-15
2023/03/01 10:50:47;;;;;;;12.73;4.45;;;13.30;45.50;;;;;;5015063;28;20041;-18
2023/03/01 10:53:21;;;;;;;9.05;4.40;;;13.10;45.70;;;;;;5015878;28;20034;-16
2023/03/01 10:55:56;;;;;;;12.68;5.18;;;13.10;45.90;;;;;;5092697;22;20195;-19
2023/03/01 10:58:22;;;;;;;13.30;5.13;;;13.00;46.00;;;;;;5035022;28;20029;-19
2023/03/01 11:00:54;;;;;;;10.13;4.18;;;12.70;45.40;;;;;;5035094;28;20029;-18
2023/03/01 11:03:35;;;;;;;13.07;4.90;;;12.40;45.80;;;;;;5035160;28;20017;-18
2023/03/01 11:06:21;;;;;;;10.68;4.40;;;12.20;47.10;;;;;;5035063;28;20025;-19
2023/03/01 11:08:49;;;;;;;14.20;4.30;;;11.90;46.30;;;;;;5034814;28;20025;-18
2023/03/01 11:11:34;;;;;;;12.57;4.43;;;11.70;46.10;;;;;;5034558;28;20425;-18
2023/03/01 11:14:23;;;;;;;14.48;4.40;;;11.50;46.70;;;;;;5035013;28;20376;-18
2023/03/01 11:17:05;;;;;;;11.18;4.25;;;11.50;48.00;;;;;;5034288;28;20029;-18
2023/03/01 11:19:32;;;;;;;11.65;4.43;;;11.40;47.40;;;;;;5034633;28;20036;-19
2023/03/01 11:22:12;;;;;;;9.02;4.03;;;11.30;47.00;;;;;;5034861;28;20075;-19
2023/03/01 11:24:46;;;;;;;11.07;4.00;;;11.30;47.30;;;;;;5034591;28;20025;-18
2023/03/01 11:27:22;;;;;;;14.85;4.20;;;11.30;46.30;;;;;;5034544;28;20061;-18
2023/03/01 11:30:05;;;;;;;12.45;3.83;;;11.30;48.10;;;;;;5034760;28;20080;-18
2023/03/01 11:32:40;;;;;;;12.60;4.53;;;11.30;46.70;;;;;;5089111;22;20080;-16
2023/03/01 11:35:13;;;;;;;11.00;4.40;;;11.20;48.80;;;;;;5034668;28;20129;-15
2023/03/01 11:38:01;;;;;;;11.27;4.03;;;11.20;47.20;;;;;;5034122;28;20037;-14
2023/03/01 11:41:05;;;;;;;12.80;4.60;;;11.10;47.90;;;;;;5034709;28;20029;-15
2023/03/01 11:43:42;;;;;;;13.50;4.30;;;11.20;48.50;;;;;;5034517;28;20199;-17
2023/03/01 11:46:32;;;;;;;11.52;4.57;;;11.30;47.90;;;;;;5034315;28;20056;-13
2023/03/01 11:49:22;;;;;;;12.23;4.40;;;11.20;48.90;;;;;;5033860;28;20029;-15
2023/03/01 11:51:57;;;;;;;14.73;5.22;;;11.00;48.00;;;;;;5034695;28;20030;-15
2023/03/01 11:54:47;;;;;;;11.32;4.30;;;10.90;48.90;;;;;;5033949;28;20030;-14
2023/03/01 11:57:43;;;;;;;11.23;4.70;;;10.90;47.00;;;;;;5034381;28;20034;-16
2023/03/01 12:00:46;;;;;;;12.27;4.65;;;10.70;48.80;;;;;;5033353;28;20033;-15
2023/03/01 12:03:30;;;;;;;13.70;4.97;;;10.60;48.20;;;;;;5033783;28;20117;-17
2023/03/01 12:06:26;;;;;;;13.88;5.32;;;10.50;49.10;;;;;;5016500;28;20068;-15
2023/03/01 12:08:55;;;;;;;12.50;4.57;;;10.40;47.70;;;;;;5033558;28;20109;-15
2023/03/01 12:11:39;;;;;;;12.68;4.57;;;10.30;49.30;;;;;;5034066;28;20022;-17
2023/03/01 12:14:33;;;;;;;12.77;4.93;;;10.30;49.60;;;;;;5033711;28;20036;-16
2023/03/01 12:17:24;;;;;;;13.70;4.53;;;10.20;49.50;;;;;;5033278;28;20560;-16
2023/03/01 12:20:27;;;;;;;12.25;4.32;;;10.20;49.80;;;;;;5033475;28;20029;-16
2023/03/01 12:22:58;;;;;;;12.88;4.65;;;10.20;50.20;;;;;;5033483;28;20472;-15
2023/03/01 12:25:32;;;;;;;8.25;4.50;;;10.20;49.60;;;;;;5033593;28;20058;-16
2023/03/01 12:28:19;;;;;;;8.48;4.30;;;10.10;48.90;;;;;;5033830;28;20021;-16
2023/03/01 12:31:00;;;;;;;8.95;4.40;;;10.10;49.90;;;;;;5032694;28;20420;-15
2023/03/01 12:33:42;;;;;;;13.15;4.45;;;9.90;50.20;;;;;;5033410;28;20025;-14
2023/03/01 12:36:50;;;;;;;10.98;4.40;;;9.90;50.20;;;;;;5033253;28;20064;-14
2023/03/01 12:39:24;;;;;;;10.27;4.43;;;9.90;50.70;;;;;;5032635;28;20041;-17
2023/03/01 12:42:11;;;;;;;15.52;5.10;;;9.80;51.00;;;;;;5033192;28;20532;-16
2023/03/01 12:44:53;;;;;;;12.48;5.20;;;9.80;50.40;;;;;;5033058;28;20025;-15
2023/03/01 12:47:29;;;;;;;12.68;5.32;;;9.80;51.60;;;;;;5032847;28;20033;-13
2023/03/01 12:50:01;;;;;;;11.15;5.05;;;9.70;51.60;;;;;;5033180;28;20136;-12
2023/03/01 12:52:51;;;;;;;9.35;4.70;;;9.60;51.90;;;;;;5123119;22;20053;-18
2023/03/01 12:55:42;;;;;;;10.25;4.30;;;9.70;51.60;;;;;;5053320;28;20021;-17
2023/03/01 12:58:42;;;;;;;14.77;5.97;;;9.70;51.40;;;;;;5053060;28;20128;-17
2023/03/01 13:01:36;;;;;;;11.95;4.78;;;9.70;51.00;;;;;;5052755;28;20028;-18
2023/03/01 13:04:29;;;;;;;10.32;4.50;;;9.80;51.80;;;;;;5053053;28;20048;-18
2023/03/01 13:07:09;;;;;;;12.20;5.07;;;9.70;52.90;;;;;;5052554;28;20024;-18
2023/03/01 13:10:23;;;;;;;11.77;5.53;;;9.60;55.70;;;;;;5052411;28;20522;-19